Time;durP1;ratioP1;P1;durP2;ratioP2;P2;SDS_P1;SDS_P2;PMS_P1;PMS_P2;Temp;Humidity;BMP_temperature;BMP_pressure;BME280_temperature;BME280_humidity;BME280_pressure;Samples;Min_cycle;Max_cycle;Signal;HPM_P1;HPM_P2
2021/11/13 00:00:21;;;;;;;267.73;50.53;;;2.90;99.90;;;;;;2669716;28;20209;-66
2021/11/13 00:01:40;;;;;;;86.10;44.10;;;2.90;99.90;;;;;;2668542;28;20206;-66
2021/11/13 00:02:57;;;;;;;137.30;45.35;;;2.90;99.90;;;;;;2661948;28;20202;-66
2021/11/13 00:04:16;;;;;;;243.20;51.63;;;2.90;99.90;;;;;;2667064;28;20203;-66
2021/11/13 00:05:33;;;;;;;78.28;39.35;;;2.90;99.90;;;;;;2670306;28;20228;-66
2021/11/13 00:06:52;;;;;;;168.43;43.53;;;2.90;99.90;;;;;;2669665;28;20242;-66
2021/11/13 00:08:10;;;;;;;110.65;43.22;;;3.00;99.90;;;;;;2669883;28;20245;-66
2021/11/13 00:09:28;;;;;;;76.15;39.90;;;3.00;99.90;;;;;;2667161;28;20194;-66
2021/11/13 00:10:48;;;;;;;89.05;43.20;;;3.00;99.90;;;;;;2669543;28;20217;-66
2021/11/13 00:12:06;;;;;;;118.03;42.00;;;3.00;99.90;;;;;;2674930;28;20200;-66
2021/11/13 00:13:25;;;;;;;89.22;40.25;;;3.00;99.90;;;;;;2674208;28;20198;-66
2021/11/13 00:14:45;;;;;;;115.38;43.00;;;3.00;99.90;;;;;;2676574;28;20801;-66
2021/11/13 00:16:03;;;;;;;111.22;38.65;;;3.10;99.90;;;;;;2673998;28;20574;-66
2021/11/13 00:17:21;;;;;;;126.15;41.90;;;3.10;99.90;;;;;;2680330;28;20777;-66
2021/11/13 00:18:39;;;;;;;103.43;41.47;;;3.10;99.90;;;;;;2680461;28;20289;-67
2021/11/13 00:19:57;;;;;;;84.53;39.28;;;3.00;99.90;;;;;;2680253;28;20201;-66
2021/11/13 00:21:15;;;;;;;158.50;44.20;;;3.10;99.90;;;;;;2680550;28;20264;-66
2021/11/13 00:22:33;;;;;;;76.82;39.28;;;3.00;99.90;;;;;;2680150;28;20201;-66
2021/11/13 00:23:51;;;;;;;107.03;42.20;;;3.00;99.90;;;;;;2676602;28;20383;-66
2021/11/13 00:25:09;;;;;;;121.82;40.83;;;2.90;99.90;;;;;;2669468;28;20229;-66
2021/11/13 00:26:27;;;;;;;158.93;43.60;;;2.90;99.90;;;;;;2669544;28;20265;-66
2021/11/13 00:27:45;;;;;;;150.07;44.50;;;2.90;99.90;;;;;;2669444;28;20242;-66
2021/11/13 00:29:04;;;;;;;151.60;42.40;;;2.90;99.90;;;;;;2669738;28;20213;-66
2021/11/13 00:30:21;;;;;;;74.82;41.22;;;2.90;99.90;;;;;;2669352;28;20206;-66
2021/11/13 00:31:40;;;;;;;78.80;38.37;;;2.90;99.90;;;;;;2666014;28;20281;-66
2021/11/13 00:32:57;;;;;;;116.22;40.60;;;2.90;99.90;;;;;;2666705;28;20701;-66
2021/11/13 00:34:16;;;;;;;85.07;39.67;;;2.90;99.90;;;;;;2667267;28;20205;-66
2021/11/13 00:35:34;;;;;;;85.22;39.78;;;2.90;99.90;;;;;;2669642;28;20213;-66
2021/11/13 00:36:51;;;;;;;135.88;45.00;;;2.90;99.90;;;;;;2669217;28;20735;-66
2021/11/13 00:38:10;;;;;;;144.60;45.87;;;2.90;99.90;;;;;;2669625;28;20337;-66
2021/11/13 00:39:27;;;;;;;140.63;45.60;;;2.90;99.90;;;;;;2669150;28;20205;-66
2021/11/13 00:40:46;;;;;;;125.33;44.87;;;2.90;99.90;;;;;;2666449;28;20789;-66
2021/11/13 00:42:03;;;;;;;281.20;50.58;;;2.90;99.90;;;;;;2659058;28;20203;-66
2021/11/13 00:43:22;;;;;;;467.93;65.90;;;2.90;99.90;;;;;;2661152;28;20301;-66
2021/11/13 00:44:39;;;;;;;140.82;45.08;;;2.80;99.90;;;;;;2668334;28;20602;-66
2021/11/13 00:45:58;;;;;;;254.07;53.37;;;2.80;99.90;;;;;;2668377;28;20222;-66
2021/11/13 00:47:15;;;;;;;176.27;48.10;;;2.80;99.90;;;;;;2669290;28;20937;-66
2021/11/13 00:48:33;;;;;;;204.80;49.57;;;2.80;99.90;;;;;;2669543;28;20242;-66
2021/11/13 00:49:51;;;;;;;172.45;46.67;;;2.80;99.90;;;;;;2669368;28;20838;-66
2021/11/13 00:51:09;;;;;;;131.10;47.70;;;2.80;99.90;;;;;;2669681;28;20337;-66
2021/11/13 00:52:28;;;;;;;90.10;39.70;;;3.00;99.90;;;;;;2668912;28;20248;-66
2021/11/13 00:53:46;;;;;;;86.88;40.55;;;3.10;99.90;;;;;;2669196;28;20206;-66
2021/11/13 00:55:04;;;;;;;153.63;43.97;;;3.10;99.90;;;;;;2668605;28;20206;-66
2021/11/13 00:56:22;;;;;;;148.67;46.03;;;3.00;99.90;;;;;;2669174;28;20225;-67
2021/11/13 00:57:40;;;;;;;87.00;38.42;;;2.90;99.90;;;;;;2669299;28;20572;-66
2021/11/13 00:58:58;;;;;;;120.87;44.63;;;3.00;99.90;;;;;;2669371;28;20291;-66
2021/11/13 01:00:17;;;;;;;280.05;49.03;;;3.10;99.90;;;;;;2669339;28;20249;-66
2021/11/13 01:01:35;;;;;;;170.27;46.35;;;3.10;99.90;;;;;;2669308;28;21060;-66
2021/11/13 01:02:52;;;;;;;80.63;38.38;;;3.00;99.90;;;;;;2668582;28;20206;-66
2021/11/13 01:04:11;;;;;;;366.50;59.37;;;3.00;99.90;;;;;;2668313;28;20252;-66
2021/11/13 01:05:29;;;;;;;221.45;48.85;;;2.90;99.90;;;;;;2669002;28;20205;-66
2021/11/13 01:06:48;;;;;;;214.82;49.55;;;2.90;99.90;;;;;;2668958;28;20202;-66
2021/11/13 01:08:06;;;;;;;80.57;36.00;;;2.90;99.90;;;;;;2664290;28;20199;-66
2021/11/13 01:09:24;;;;;;;579.97;70.70;;;2.90;99.90;;;;;;2669166;28;20675;-66
2021/11/13 01:10:43;;;;;;;643.88;72.68;;;3.00;99.90;;;;;;2677318;28;20190;-66
2021/11/13 01:12:00;;;;;;;848.28;95.00;;;2.90;99.90;;;;;;2673450;28;20197;-66
2021/11/13 01:13:19;;;;;;;1171.17;120.97;;;2.90;99.90;;;;;;2673557;28;20267;-66
2021/11/13 01:14:40;;;;;;;270.92;55.47;;;2.80;99.90;;;;;;2676472;28;20221;-66
2021/11/13 01:15:58;;;;;;;518.40;75.40;;;2.70;99.90;;;;;;2675284;28;20606;-66
2021/11/13 01:17:16;;;;;;;537.45;77.43;;;2.80;99.90;;;;;;2668980;28;20202;-66
2021/11/13 01:18:35;;;;;;;877.20;100.15;;;2.80;99.90;;;;;;2669415;28;20206;-66
2021/11/13 01:19:53;;;;;;;559.05;77.78;;;2.80;99.90;;;;;;2669081;28;20746;-66
2021/11/13 01:21:12;;;;;;;765.55;84.75;;;2.70;99.90;;;;;;2669206;28;20280;-66
2021/11/13 01:22:29;;;;;;;858.28;100.60;;;2.70;99.90;;;;;;2668874;28;20269;-66
2021/11/13 01:23:48;;;;;;;799.60;85.20;;;2.60;99.90;;;;;;2669108;28;20280;-67
2021/11/13 01:25:06;;;;;;;616.13;81.45;;;2.60;99.90;;;;;;2668842;28;20472;-66
2021/11/13 01:26:24;;;;;;;479.98;66.20;;;2.50;99.90;;;;;;2669016;28;20198;-66
2021/11/13 01:27:43;;;;;;;574.55;73.72;;;2.60;99.90;;;;;;2668841;28;20272;-66
2021/11/13 01:29:01;;;;;;;152.10;46.20;;;2.60;99.90;;;;;;2668732;28;20206;-66
2021/11/13 01:30:19;;;;;;;384.42;63.08;;;2.60;99.90;;;;;;2668837;28;20557;-66
2021/11/13 01:31:37;;;;;;;620.77;77.77;;;2.70;99.90;;;;;;2668927;28;20213;-66
2021/11/13 01:32:56;;;;;;;581.80;73.85;;;2.60;99.90;;;;;;2665342;28;20656;-66
2021/11/13 01:34:14;;;;;;;740.53;81.90;;;2.60;99.90;;;;;;2663819;28;20194;-66
2021/11/13 01:35:32;;;;;;;475.52;66.40;;;2.60;99.90;;;;;;2669086;28;20729;-66
2021/11/13 01:36:50;;;;;;;244.47;53.23;;;2.60;99.90;;;;;;2668541;28;20280;-66
2021/11/13 01:38:08;;;;;;;360.75;59.58;;;2.60;99.90;;;;;;2668825;28;20241;-66
2021/11/13 01:39:26;;;;;;;237.98;53.95;;;2.80;99.90;;;;;;2667784;28;20206;-66
2021/11/13 01:40:44;;;;;;;320.50;56.73;;;2.80;99.90;;;;;;2668492;28;20830;-66
2021/11/13 01:42:02;;;;;;;715.67;81.72;;;2.80;99.90;;;;;;2668993;28;20350;-66
2021/11/13 01:43:20;;;;;;;408.63;70.53;;;2.70;99.90;;;;;;2668943;28;20376;-66
2021/11/13 01:44:38;;;;;;;492.60;67.75;;;2.70;99.90;;;;;;2667727;28;20596;-66
2021/11/13 01:45:56;;;;;;;610.77;79.97;;;2.70;99.90;;;;;;2668129;28;20302;-66
2021/11/13 01:47:15;;;;;;;459.02;65.13;;;2.60;99.90;;;;;;2668413;28;20869;-66
2021/11/13 01:48:33;;;;;;;449.85;62.40;;;2.70;99.90;;;;;;2668585;28;20217;-66
2021/11/13 01:49:50;;;;;;;185.07;48.90;;;2.60;99.90;;;;;;2668708;28;20259;-66
2021/11/13 01:51:09;;;;;;;205.93;52.17;;;2.70;99.90;;;;;;2668012;28;20238;-66
2021/11/13 01:52:27;;;;;;;431.38;69.38;;;2.70;99.90;;;;;;2668795;28;20697;-66
2021/11/13 01:53:46;;;;;;;548.05;75.90;;;2.70;99.90;;;;;;2668776;28;20703;-66
2021/11/13 01:55:04;;;;;;;627.33;78.03;;;2.70;99.90;;;;;;2668059;28;20686;-66
2021/11/13 01:56:22;;;;;;;683.25;86.60;;;2.70;99.90;;;;;;2668897;28;20729;-66
2021/11/13 01:57:47;;;;;;;321.60;66.10;;;2.70;99.90;;;;;;2668899;28;20202;-66
2021/11/13 01:59:05;;;;;;;554.17;75.82;;;2.70;99.90;;;;;;2668642;28;20198;-66
2021/11/13 02:00:23;;;;;;;463.60;73.68;;;2.80;99.90;;;;;;2668856;28;20229;-66
2021/11/13 02:01:43;;;;;;;677.03;89.30;;;2.80;99.90;;;;;;2668590;28;20202;-66
2021/11/13 02:03:02;;;;;;;391.15;72.45;;;2.80;99.90;;;;;;2667912;28;20568;-66
2021/11/13 02:04:19;;;;;;;625.60;90.30;;;2.80;99.90;;;;;;2667899;28;20863;-66
2021/11/13 02:05:38;;;;;;;1051.20;128.20;;;2.90;99.90;;;;;;2668207;28;20300;-66
2021/11/13 02:06:56;;;;;;;490.13;75.47;;;2.90;99.90;;;;;;2665493;28;20202;-66
2021/11/13 02:08:14;;;;;;;781.33;90.07;;;2.80;99.90;;;;;;2668432;28;20680;-66
2021/11/13 02:09:32;;;;;;;689.40;91.07;;;2.90;99.90;;;;;;2669030;28;20206;-66
2021/11/13 02:10:50;;;;;;;163.87;55.30;;;2.80;99.90;;;;;;2676098;28;20221;-67
2021/11/13 02:12:09;;;;;;;205.75;51.05;;;2.90;99.90;;;;;;2673908;28;20224;-66
2021/11/13 02:13:27;;;;;;;121.55;52.35;;;3.00;99.90;;;;;;2671943;28;20199;-66
2021/11/13 02:14:45;;;;;;;539.50;76.90;;;3.00;99.90;;;;;;2666385;28;20293;-66
2021/11/13 02:16:04;;;;;;;377.42;61.88;;;3.00;99.90;;;;;;2677536;28;20686;-66
2021/11/13 02:17:23;;;;;;;246.10;56.30;;;3.00;99.90;;;;;;2678976;28;20616;-66
2021/11/13 02:18:41;;;;;;;246.90;56.22;;;3.00;99.90;;;;;;2678840;28;20794;-66
2021/11/13 02:19:59;;;;;;;587.55;76.75;;;3.00;99.90;;;;;;2672186;28;20214;-66
2021/11/13 02:21:18;;;;;;;431.90;67.77;;;3.00;99.90;;;;;;2668407;28;20677;-66
2021/11/13 02:22:36;;;;;;;189.82;54.03;;;2.90;99.90;;;;;;2668815;28;20614;-66
2021/11/13 02:23:55;;;;;;;263.63;55.22;;;2.90;99.90;;;;;;2667679;28;20210;-66
2021/11/13 02:25:12;;;;;;;221.00;57.33;;;2.90;99.90;;;;;;2668585;28;20202;-66
2021/11/13 02:26:31;;;;;;;1420.37;142.70;;;3.00;99.90;;;;;;2668649;28;20717;-66
2021/11/13 02:27:48;;;;;;;644.97;79.72;;;3.00;99.90;;;;;;2668469;28;20205;-66
2021/11/13 02:29:07;;;;;;;205.87;52.73;;;2.90;99.90;;;;;;2668669;28;20675;-66
2021/11/13 02:30:24;;;;;;;215.52;54.33;;;2.90;99.90;;;;;;2668409;28;20198;-67
2021/11/13 02:31:43;;;;;;;195.33;53.27;;;2.90;99.90;;;;;;2668368;28;20294;-66
2021/11/13 02:33:00;;;;;;;310.67;65.30;;;2.90;99.90;;;;;;2667408;28;20202;-67
2021/11/13 02:34:19;;;;;;;239.87;51.40;;;3.00;99.90;;;;;;2663590;28;20361;-66
2021/11/13 02:35:37;;;;;;;437.33;59.50;;;3.00;99.90;;;;;;2659153;28;20222;-66
2021/11/13 02:36:56;;;;;;;304.88;59.53;;;3.00;99.90;;;;;;2658058;28;20207;-66
2021/11/13 02:38:14;;;;;;;347.10;64.63;;;2.90;99.90;;;;;;2657670;28;20281;-66
2021/11/13 02:39:32;;;;;;;614.95;79.40;;;3.00;99.90;;;;;;2658298;28;20203;-67
2021/11/13 02:40:51;;;;;;;510.83;71.60;;;3.00;99.90;;;;;;2657505;28;20207;-66
2021/11/13 02:42:08;;;;;;;222.80;53.58;;;2.90;99.90;;;;;;2659033;28;20209;-66
2021/11/13 02:43:27;;;;;;;332.47;66.43;;;2.90;99.90;;;;;;2667430;28;20659;-67
2021/11/13 02:44:45;;;;;;;280.33;53.47;;;2.90;99.90;;;;;;2667720;28;20217;-67
2021/11/13 02:46:04;;;;;;;727.03;77.25;;;2.90;99.90;;;;;;2668097;28;20884;-66
2021/11/13 02:47:22;;;;;;;510.17;76.05;;;2.90;99.90;;;;;;2668268;28;20656;-66
2021/11/13 02:48:41;;;;;;;333.27;59.17;;;2.90;99.90;;;;;;2668309;28;20232;-67
2021/11/13 02:49:58;;;;;;;262.48;54.95;;;2.90;99.90;;;;;;2668041;28;20214;-67
2021/11/13 02:51:17;;;;;;;334.57;58.70;;;2.90;99.90;;;;;;2667793;28;20230;-66
2021/11/13 02:52:34;;;;;;;253.88;55.40;;;2.90;99.90;;;;;;2668548;28;20202;-67
2021/11/13 02:53:52;;;;;;;293.93;55.27;;;3.00;99.90;;;;;;2667914;28;20677;-66
2021/11/13 02:55:10;;;;;;;152.10;49.15;;;2.90;99.90;;;;;;2668262;28;20213;-67
2021/11/13 02:56:28;;;;;;;525.50;80.07;;;2.90;99.90;;;;;;2668582;28;20363;-67
2021/11/13 02:57:46;;;;;;;237.90;55.40;;;2.90;99.90;;;;;;2668131;28;20677;-67
2021/11/13 02:59:04;;;;;;;240.17;50.73;;;2.90;99.90;;;;;;2668308;28;20285;-67
2021/11/13 03:00:22;;;;;;;288.88;56.85;;;3.00;99.90;;;;;;2667789;28;20210;-66
2021/11/13 03:01:40;;;;;;;202.43;54.10;;;3.00;99.90;;;;;;2668195;28;20237;-67
2021/11/13 03:02:58;;;;;;;329.95;59.97;;;3.10;99.90;;;;;;2668157;28;20210;-66
2021/11/13 03:04:18;;;;;;;303.73;55.87;;;3.10;99.90;;;;;;2667601;28;20336;-67
2021/11/13 03:05:35;;;;;;;389.73;65.85;;;3.10;99.90;;;;;;2668057;28;20580;-66
2021/11/13 03:06:54;;;;;;;313.53;55.63;;;3.10;99.90;;;;;;2667705;28;20210;-66
2021/11/13 03:08:11;;;;;;;296.10;53.42;;;3.00;99.90;;;;;;2668065;28;20199;-66
2021/11/13 03:09:30;;;;;;;332.23;55.50;;;3.10;99.90;;;;;;2661628;28;20382;-66
2021/11/13 03:10:47;;;;;;;255.63;50.15;;;3.10;99.90;;;;;;2671028;28;20214;-66
2021/11/13 03:12:05;;;;;;;530.07;72.03;;;3.00;99.90;;;;;;2667583;28;20225;-66
2021/11/13 03:13:24;;;;;;;127.45;43.60;;;3.00;99.90;;;;;;2666834;28;20199;-66
2021/11/13 03:14:41;;;;;;;194.40;47.85;;;3.00;99.90;;;;;;2674980;28;20201;-66
2021/11/13 03:16:00;;;;;;;113.70;41.03;;;3.00;99.90;;;;;;2672114;28;20229;-66
2021/11/13 03:17:17;;;;;;;171.52;44.40;;;3.10;99.90;;;;;;2667868;28;20206;-66
2021/11/13 03:18:36;;;;;;;126.20;41.13;;;3.10;99.90;;;;;;2668221;28;20714;-66
2021/11/13 03:19:53;;;;;;;371.00;59.97;;;3.10;99.90;;;;;;2664515;28;20191;-66
2021/11/13 03:21:12;;;;;;;249.30;57.17;;;3.00;99.90;;;;;;2667828;28;20202;-66
2021/11/13 03:22:29;;;;;;;111.10;43.28;;;3.00;99.90;;;;;;2658977;28;20311;-66
2021/11/13 03:23:47;;;;;;;160.63;44.77;;;3.00;99.90;;;;;;2657668;28;20293;-67
2021/11/13 03:25:05;;;;;;;196.30;47.15;;;3.00;99.90;;;;;;2656698;28;20211;-66
2021/11/13 03:26:23;;;;;;;173.77;44.37;;;3.00;99.90;;;;;;2668129;28;20292;-66
2021/11/13 03:27:41;;;;;;;135.18;41.80;;;3.00;99.90;;;;;;2668332;28;20733;-66
2021/11/13 03:28:59;;;;;;;105.97;40.27;;;3.00;99.90;;;;;;2667961;28;20226;-66
2021/11/13 03:30:17;;;;;;;121.47;43.50;;;3.10;99.90;;;;;;2669257;28;20202;-67
2021/11/13 03:31:35;;;;;;;126.33;41.40;;;3.10;99.90;;;;;;2670556;28;20836;-66
2021/11/13 03:32:53;;;;;;;141.00;44.58;;;3.10;99.90;;;;;;2669809;28;20210;-66
2021/11/13 03:34:11;;;;;;;152.93;43.80;;;3.20;99.90;;;;;;2669198;28;20301;-66
2021/11/13 03:35:30;;;;;;;221.30;46.08;;;3.10;99.90;;;;;;2661917;28;20317;-67
2021/11/13 03:36:48;;;;;;;165.63;40.45;;;3.10;99.90;;;;;;2659873;28;20213;-67
2021/11/13 03:38:05;;;;;;;130.98;41.25;;;3.10;99.90;;;;;;2659038;28;20210;-67
2021/11/13 03:39:24;;;;;;;189.67;40.60;;;3.10;99.90;;;;;;2659784;28;20242;-66
2021/11/13 03:40:42;;;;;;;105.05;40.88;;;3.00;99.90;;;;;;2666550;28;20210;-66
2021/11/13 03:42:00;;;;;;;243.63;46.95;;;3.00;99.90;;;;;;2670174;28;20206;-66
2021/11/13 03:43:18;;;;;;;254.97;46.90;;;3.00;99.90;;;;;;2670369;28;20237;-66
2021/11/13 03:44:36;;;;;;;133.27;42.15;;;3.00;99.90;;;;;;2669270;28;20719;-66
2021/11/13 03:45:54;;;;;;;96.53;38.13;;;3.00;99.90;;;;;;2670053;28;20206;-66
2021/11/13 03:47:12;;;;;;;71.03;36.88;;;3.00;99.90;;;;;;2670324;28;20347;-67
2021/11/13 03:48:30;;;;;;;77.43;34.27;;;3.00;99.90;;;;;;2670523;28;20427;-66
2021/11/13 03:49:48;;;;;;;112.05;36.53;;;3.00;99.90;;;;;;2670115;28;20210;-66
2021/11/13 03:51:07;;;;;;;45.80;33.67;;;3.00;99.90;;;;;;2669867;28;20202;-66
2021/11/13 03:52:24;;;;;;;90.18;38.65;;;3.00;99.90;;;;;;2669836;28;20260;-66
2021/11/13 03:53:43;;;;;;;72.80;33.70;;;3.00;99.90;;;;;;2670079;28;20297;-66
2021/11/13 03:55:00;;;;;;;81.97;36.55;;;2.90;99.90;;;;;;2668906;28;20903;-66
2021/11/13 03:56:19;;;;;;;123.13;38.13;;;2.80;99.90;;;;;;2666610;28;20348;-66
2021/11/13 03:57:37;;;;;;;76.05;34.38;;;2.80;99.90;;;;;;2659380;28;20191;-67
2021/11/13 03:58:55;;;;;;;55.33;34.20;;;2.80;99.90;;;;;;2659090;28;20227;-66
2021/11/13 04:00:13;;;;;;;42.92;31.10;;;2.70;99.90;;;;;;2659656;28;20218;-66
2021/11/13 04:01:31;;;;;;;139.23;36.07;;;2.70;99.90;;;;;;2659488;28;20230;-66
2021/11/13 04:02:49;;;;;;;102.90;36.50;;;2.70;99.90;;;;;;2660167;28;20241;-67
2021/11/13 04:04:07;;;;;;;143.63;38.80;;;2.70;99.90;;;;;;2668940;28;20246;-67
2021/11/13 04:05:26;;;;;;;64.43;34.60;;;2.50;99.90;;;;;;2661609;28;20246;-66
2021/11/13 04:06:44;;;;;;;82.03;32.05;;;2.50;99.90;;;;;;2669402;28;20191;-66
2021/11/13 04:08:03;;;;;;;56.40;32.03;;;2.50;99.90;;;;;;2669109;28;20202;-66
2021/11/13 04:09:22;;;;;;;74.10;34.63;;;2.50;99.90;;;;;;2664213;28;20252;-66
2021/11/13 04:10:40;;;;;;;78.35;32.15;;;2.40;99.90;;;;;;2677129;28;20194;-66
2021/11/13 04:12:03;;;;;;;116.32;34.72;;;2.40;99.90;;;;;;2673775;28;20202;-66
2021/11/13 04:13:22;;;;;;;174.07;41.88;;;2.40;99.90;;;;;;2674529;28;20198;-67
2021/11/13 04:14:41;;;;;;;76.28;35.15;;;2.40;99.90;;;;;;2676892;28;20201;-67
2021/11/13 04:15:59;;;;;;;90.88;34.38;;;2.40;99.90;;;;;;2673456;28;21105;-67
2021/11/13 04:17:18;;;;;;;78.32;34.20;;;2.40;99.90;;;;;;2680624;28;20735;-67
2021/11/13 04:18:36;;;;;;;68.70;33.17;;;2.30;99.90;;;;;;2680306;28;20694;-67
2021/11/13 04:19:54;;;;;;;83.45;36.10;;;2.30;99.90;;;;;;2668212;28;20225;-67
2021/11/13 04:21:12;;;;;;;69.40;33.23;;;2.30;99.90;;;;;;2664583;28;20248;-67
2021/11/13 04:22:30;;;;;;;95.38;35.28;;;2.30;99.90;;;;;;2669306;28;20660;-67
2021/11/13 04:23:48;;;;;;;81.43;35.87;;;2.40;99.90;;;;;;2669285;28;20286;-67
2021/11/13 04:25:07;;;;;;;80.97;35.00;;;2.40;99.90;;;;;;2668529;28;20210;-67
2021/11/13 04:26:25;;;;;;;132.52;38.72;;;2.40;99.90;;;;;;2664531;28;20215;-67
2021/11/13 04:27:43;;;;;;;127.80;35.63;;;2.30;99.90;;;;;;2662463;28;20667;-67
2021/11/13 04:29:01;;;;;;;121.57;38.10;;;2.30;99.90;;;;;;2669680;28;20293;-67
2021/11/13 04:30:19;;;;;;;51.28;31.42;;;2.20;99.90;;;;;;2669689;28;20325;-67
2021/11/13 04:31:37;;;;;;;84.05;34.72;;;2.30;99.90;;;;;;2669510;28;20206;-67
2021/11/13 04:32:55;;;;;;;99.50;34.93;;;2.30;99.90;;;;;;2669401;28;20291;-67
2021/11/13 04:34:14;;;;;;;79.22;35.05;;;2.40;99.90;;;;;;2668378;28;20264;-67
2021/11/13 04:35:47;;;;;;;56.53;33.38;;;2.40;99.90;;;;;;2669563;28;20447;-67
2021/11/13 04:37:13;;;;;;;116.70;35.50;;;2.40;99.90;;;;;;2664441;28;20207;-66
2021/11/13 04:38:31;;;;;;;106.00;36.72;;;2.40;99.90;;;;;;2665895;28;20205;-67
2021/11/13 04:39:50;;;;;;;89.43;35.78;;;2.30;99.90;;;;;;2659185;28;20555;-67
2021/11/13 04:41:08;;;;;;;90.68;35.55;;;2.30;99.90;;;;;;2663611;28;20195;-66
2021/11/13 04:42:26;;;;;;;110.55;34.15;;;2.30;99.90;;;;;;2669346;28;20210;-66
2021/11/13 04:43:44;;;;;;;110.77;35.83;;;2.30;99.90;;;;;;2667575;28;20231;-67
2021/11/13 04:45:02;;;;;;;75.72;36.67;;;2.30;99.90;;;;;;2657904;28;20207;-67
2021/11/13 04:46:20;;;;;;;54.43;33.47;;;2.30;99.90;;;;;;2658956;28;20265;-66
2021/11/13 04:47:38;;;;;;;66.15;33.08;;;2.40;99.90;;;;;;2659293;28;20822;-66
2021/11/13 04:48:56;;;;;;;94.53;35.13;;;2.30;99.90;;;;;;2658337;28;20289;-67
2021/11/13 04:50:13;;;;;;;47.78;31.48;;;2.30;99.90;;;;;;2665358;28;20206;-66
2021/11/13 04:51:32;;;;;;;77.60;35.50;;;2.40;99.90;;;;;;2669789;28;20779;-67
2021/11/13 04:52:49;;;;;;;50.17;32.67;;;2.40;99.90;;;;;;2669464;28;20211;-67
2021/11/13 04:54:08;;;;;;;73.70;32.03;;;2.40;99.90;;;;;;2668485;28;20293;-67
2021/11/13 04:55:26;;;;;;;43.80;29.67;;;2.40;99.90;;;;;;2667228;28;20725;-67
2021/11/13 04:56:44;;;;;;;59.33;30.50;;;2.40;99.90;;;;;;2663333;28;20202;-67
2021/11/13 04:58:02;;;;;;;52.90;31.97;;;2.40;99.90;;;;;;2668115;28;20277;-67
2021/11/13 04:59:21;;;;;;;51.42;32.15;;;2.30;99.90;;;;;;2668741;28;20226;-66
2021/11/13 05:00:39;;;;;;;50.88;32.70;;;2.30;99.90;;;;;;2669346;28;20202;-69
2021/11/13 05:01:56;;;;;;;52.65;34.05;;;2.30;99.90;;;;;;2668528;28;20551;-67
2021/11/13 05:03:15;;;;;;;53.20;31.03;;;2.30;99.90;;;;;;2669704;28;20325;-66
2021/11/13 05:04:33;;;;;;;67.50;33.00;;;2.30;99.90;;;;;;2667835;28;20253;-67
2021/11/13 05:05:52;;;;;;;38.35;30.67;;;2.30;99.90;;;;;;2668468;28;20213;-67
2021/11/13 05:07:09;;;;;;;94.15;36.30;;;2.40;99.90;;;;;;2668834;28;20194;-67
2021/11/13 05:08:28;;;;;;;74.90;34.33;;;2.30;99.90;;;;;;2668991;28;20187;-66
2021/11/13 05:09:45;;;;;;;50.83;32.97;;;2.30;99.90;;;;;;2665116;28;20631;-67
2021/11/13 05:11:04;;;;;;;117.87;36.23;;;2.30;99.90;;;;;;2674920;28;20222;-67
2021/11/13 05:12:21;;;;;;;84.85;35.97;;;2.30;99.90;;;;;;2676244;28;20268;-67
2021/11/13 05:13:39;;;;;;;43.37;33.60;;;2.30;99.90;;;;;;2671349;28;20639;-66
2021/11/13 05:14:58;;;;;;;96.43;34.67;;;2.40;99.90;;;;;;2675762;28;20201;-66
2021/11/13 05:16:16;;;;;;;56.75;34.13;;;2.40;99.90;;;;;;2675182;28;20201;-67
2021/11/13 05:17:34;;;;;;;39.80;31.60;;;2.30;99.90;;;;;;2679830;28;20205;-66
2021/11/13 05:18:52;;;;;;;36.83;31.23;;;2.30;99.90;;;;;;2678088;28;20233;-66
2021/11/13 05:20:10;;;;;;;75.70;34.08;;;2.40;99.90;;;;;;2668599;28;20202;-67
2021/11/13 05:21:28;;;;;;;65.60;34.47;;;2.40;99.90;;;;;;2669153;28;20264;-67
2021/11/13 05:22:47;;;;;;;45.63;33.17;;;2.40;99.90;;;;;;2669029;28;20198;-67
2021/11/13 05:24:05;;;;;;;41.88;34.03;;;2.30;99.90;;;;;;2667363;28;20945;-67
2021/11/13 05:25:22;;;;;;;39.67;31.95;;;2.30;99.90;;;;;;2668637;28;20658;-67
2021/11/13 05:26:41;;;;;;;43.13;32.63;;;2.30;99.90;;;;;;2668542;28;20238;-67
2021/11/13 05:27:59;;;;;;;44.40;32.35;;;2.40;99.90;;;;;;2668623;28;20267;-66
2021/11/13 05:29:17;;;;;;;53.20;33.80;;;2.30;99.90;;;;;;2669042;28;20218;-66
2021/11/13 05:30:35;;;;;;;46.80;32.10;;;2.30;99.90;;;;;;2669410;28;20202;-67
2021/11/13 05:31:53;;;;;;;46.15;32.45;;;2.40;99.90;;;;;;2662370;28;20221;-67
2021/11/13 05:33:11;;;;;;;46.83;32.83;;;2.40;99.90;;;;;;2668077;28;20230;-67
2021/11/13 05:34:29;;;;;;;38.03;32.40;;;2.50;99.90;;;;;;2666345;28;20198;-67
2021/11/13 05:35:47;;;;;;;39.50;30.97;;;2.40;99.90;;;;;;2665970;28;20230;-67
2021/11/13 05:37:05;;;;;;;39.05;32.63;;;2.40;99.90;;;;;;2668716;28;20203;-66
2021/11/13 05:38:24;;;;;;;33.17;29.50;;;2.30;99.90;;;;;;2669102;28;20199;-67
2021/11/13 05:39:42;;;;;;;35.22;28.92;;;2.30;99.90;;;;;;2669016;28;20226;-66
2021/11/13 05:41:00;;;;;;;35.53;30.67;;;2.40;99.90;;;;;;2659518;28;20203;-67
2021/11/13 05:42:18;;;;;;;34.77;30.03;;;2.50;99.90;;;;;;2658522;28;20217;-67
2021/11/13 05:43:37;;;;;;;34.45;30.75;;;2.40;99.90;;;;;;2658398;28;20311;-67
2021/11/13 05:44:55;;;;;;;34.28;28.70;;;2.40;99.90;;;;;;2657557;28;20256;-67
2021/11/13 05:46:15;;;;;;;33.97;29.52;;;2.40;99.90;;;;;;2658006;28;20203;-66
2021/11/13 05:47:32;;;;;;;33.33;28.20;;;2.30;99.90;;;;;;2658882;28;20347;-67
2021/11/13 05:48:51;;;;;;;32.47;28.97;;;2.40;99.90;;;;;;2658440;28;20206;-67
2021/11/13 05:50:09;;;;;;;34.00;29.13;;;2.40;99.90;;;;;;2668392;28;20237;-67
2021/11/13 05:51:28;;;;;;;32.75;28.77;;;2.30;99.90;;;;;;2668497;28;20202;-67
2021/11/13 05:52:46;;;;;;;34.40;28.40;;;2.40;99.90;;;;;;2667825;28;20615;-66
2021/11/13 05:54:04;;;;;;;32.45;29.02;;;2.50;99.90;;;;;;2668328;28;20213;-67
2021/11/13 05:55:24;;;;;;;34.97;29.67;;;2.50;99.90;;;;;;2668875;28;20289;-66
2021/11/13 05:56:41;;;;;;;32.65;27.73;;;2.60;99.90;;;;;;2668889;28;20206;-67
2021/11/13 05:58:00;;;;;;;31.07;25.73;;;2.60;99.90;;;;;;2668499;28;20293;-67
2021/11/13 05:59:17;;;;;;;33.58;28.92;;;2.60;99.90;;;;;;2668972;28;20599;-66
2021/11/13 06:00:36;;;;;;;31.43;28.10;;;2.60;99.90;;;;;;2668561;28;20293;-66
2021/11/13 06:01:54;;;;;;;28.98;25.95;;;2.60;99.90;;;;;;2668593;28;20194;-66
2021/11/13 06:03:12;;;;;;;30.02;26.55;;;2.50;99.90;;;;;;2668737;28;20209;-67
2021/11/13 06:04:30;;;;;;;33.07;29.50;;;2.60;99.90;;;;;;2668112;28;20206;-67
2021/11/13 06:05:48;;;;;;;33.63;29.50;;;2.60;99.90;;;;;;2668091;28;20206;-67
2021/11/13 06:07:06;;;;;;;32.90;29.40;;;2.60;99.90;;;;;;2667581;28;20194;-66
2021/11/13 06:08:24;;;;;;;35.60;30.50;;;2.60;99.90;;;;;;2660758;28;20696;-67
2021/11/13 06:09:43;;;;;;;33.47;29.60;;;2.60;99.90;;;;;;2660146;28;20207;-66
2021/11/13 06:11:01;;;;;;;36.80;30.00;;;2.60;99.90;;;;;;2672418;28;20220;-67
2021/11/13 06:12:19;;;;;;;34.05;30.45;;;2.60;99.90;;;;;;2672427;28;20194;-67
2021/11/13 06:13:37;;;;;;;36.87;32.70;;;2.60;99.90;;;;;;2667108;28;21356;-68
2021/11/13 06:14:56;;;;;;;37.65;31.27;;;2.60;99.90;;;;;;2664593;28;20249;-67
2021/11/13 06:16:14;;;;;;;38.47;31.15;;;2.60;99.90;;;;;;2677160;28;20560;-67
2021/11/13 06:17:32;;;;;;;37.85;31.98;;;2.60;99.90;;;;;;2679388;28;20745;-67
2021/11/13 06:18:50;;;;;;;38.13;34.03;;;2.50;99.90;;;;;;2678850;28;20290;-67
2021/11/13 06:20:08;;;;;;;36.20;32.05;;;2.50;99.90;;;;;;2678802;28;20279;-67
2021/11/13 06:21:27;;;;;;;39.30;32.38;;;2.60;99.90;;;;;;2679308;28;20205;-67
2021/11/13 06:22:45;;;;;;;35.42;29.35;;;2.60;99.90;;;;;;2679275;28;20228;-67
2021/11/13 06:24:04;;;;;;;38.92;31.65;;;2.50;99.90;;;;;;2669102;28;20210;-67
2021/11/13 06:25:23;;;;;;;45.10;32.05;;;2.50;99.90;;;;;;2668492;28;20749;-67
2021/11/13 06:26:40;;;;;;;35.83;30.50;;;2.50;99.90;;;;;;2668410;28;20205;-68
2021/11/13 06:27:59;;;;;;;37.73;31.20;;;2.50;99.90;;;;;;2668697;28;20425;-68
2021/11/13 06:29:16;;;;;;;38.50;32.50;;;2.50;99.90;;;;;;2668686;28;20248;-68
2021/11/13 06:30:35;;;;;;;37.73;30.63;;;2.50;99.90;;;;;;2668693;28;20749;-67
2021/11/13 06:31:52;;;;;;;34.92;30.60;;;2.40;99.90;;;;;;2668540;28;20660;-70
2021/11/13 06:33:10;;;;;;;34.50;29.77;;;2.40;99.90;;;;;;2668769;28;20291;-70
2021/11/13 06:34:29;;;;;;;35.22;29.55;;;2.40;99.90;;;;;;2667857;28;20558;-67
2021/11/13 06:35:47;;;;;;;36.50;31.02;;;2.40;99.90;;;;;;2668302;28;20659;-67
2021/11/13 06:37:05;;;;;;;35.45;31.65;;;2.40;99.90;;;;;;2668202;28;20253;-70
2021/11/13 06:38:23;;;;;;;30.50;27.30;;;2.30;99.90;;;;;;2663967;28;20280;-70